sensor_id;sensor_type;location;lat;lon;timestamp;P1;durP1;ratioP1;P2;durP2;ratioP2
4409;SDS011;2218;51.408;7.208;2023-03-03T00:00:05;1.60;;;1.50;;
4409;SDS011;2218;51.408;7.208;2023-03-03T00:02:42;1.50;;;1.40;;
4409;SDS011;2218;51.408;7.208;2023-03-03T00:05:11;1.63;;;1.53;;
4409;SDS011;2218;51.408;7.208;2023-03-03T00:07:41;2.00;;;1.80;;
4409;SDS011;2218;51.408;7.208;2023-03-03T00:10:09;1.70;;;1.60;;
4409;SDS011;2218;51.408;7.208;2023-03-03T00:12:42;1.73;;;1.63;;
4409;SDS011;2218;51.408;7.208;2023-03-03T00:15:14;1.70;;;1.60;;
4409;SDS011;2218;51.408;7.208;2023-03-03T00:17:43;1.70;;;1.60;;
4409;SDS011;2218;51.408;7.208;2023-03-03T00:23:16;1.70;;;1.60;;
4409;SDS011;2218;51.408;7.208;2023-03-03T00:25:54;1.80;;;1.70;;
4409;SDS011;2218;51.408;7.208;2023-03-03T00:28:24;1.80;;;1.70;;
4409;SDS011;2218;51.408;7.208;2023-03-03T00:30:55;1.50;;;1.40;;
4409;SDS011;2218;51.408;7.208;2023-03-03T00:33:26;1.80;;;1.70;;
4409;SDS011;2218;51.408;7.208;2023-03-03T00:35:59;1.60;;;1.50;;
4409;SDS011;2218;51.408;7.208;2023-03-03T00:38:52;1.40;;;1.30;;
4409;SDS011;2218;51.408;7.208;2023-03-03T00:41:23;1.87;;;1.77;;
4409;SDS011;2218;51.408;7.208;2023-03-03T00:43:53;1.97;;;1.87;;
4409;SDS011;2218;51.408;7.208;2023-03-03T00:46:20;1.47;;;1.37;;
4409;SDS011;2218;51.408;7.208;2023-03-03T00:48:49;1.60;;;1.50;;
4409;SDS011;2218;51.408;7.208;2023-03-03T00:51:24;2.23;;;2.03;;
4409;SDS011;2218;51.408;7.208;2023-03-03T00:53:54;1.73;;;1.63;;
4409;SDS011;2218;51.408;7.208;2023-03-03T00:56:22;1.77;;;1.67;;
4409;SDS011;2218;51.408;7.208;2023-03-03T00:58:49;2.00;;;1.90;;
4409;SDS011;2218;51.408;7.208;2023-03-03T01:01:19;1.57;;;1.47;;
4409;SDS011;2218;51.408;7.208;2023-03-03T01:03:50;1.50;;;1.40;;
4409;SDS011;2218;51.408;7.208;2023-03-03T01:06:17;1.60;;;1.50;;
4409;SDS011;2218;51.408;7.208;2023-03-03T01:08:45;1.50;;;1.40;;
4409;SDS011;2218;51.408;7.208;2023-03-03T01:11:13;1.90;;;1.80;;
4409;SDS011;2218;51.408;7.208;2023-03-03T01:13:46;1.67;;;1.57;;
4409;SDS011;2218;51.408;7.208;2023-03-03T01:16:17;1.70;;;1.60;;
4409;SDS011;2218;51.408;7.208;2023-03-03T01:18:45;1.50;;;1.40;;
4409;SDS011;2218;51.408;7.208;2023-03-03T01:21:12;1.90;;;1.80;;
4409;SDS011;2218;51.408;7.208;2023-03-03T01:23:39;1.70;;;1.60;;
4409;SDS011;2218;51.408;7.208;2023-03-03T01:26:08;1.67;;;1.57;;
4409;SDS011;2218;51.408;7.208;2023-03-03T01:28:35;1.60;;;1.30;;
4409;SDS011;2218;51.408;7.208;2023-03-03T01:31:02;1.80;;;1.70;;
4409;SDS011;2218;51.408;7.208;2023-03-03T01:33:31;1.50;;;1.40;;
4409;SDS011;2218;51.408;7.208;2023-03-03T01:35:58;1.70;;;1.60;;
4409;SDS011;2218;51.408;7.208;2023-03-03T01:38:25;1.67;;;1.57;;
4409;SDS011;2218;51.408;7.208;2023-03-03T01:40:53;1.70;;;1.60;;
4409;SDS011;2218;51.408;7.208;2023-03-03T01:43:26;1.73;;;1.63;;
4409;SDS011;2218;51.408;7.208;2023-03-03T01:49:10;1.77;;;1.60;;
4409;SDS011;2218;51.408;7.208;2023-03-03T01:51:44;1.60;;;1.50;;
4409;SDS011;2218;51.408;7.208;2023-03-03T01:54:18;1.70;;;1.60;;
4409;SDS011;2218;51.408;7.208;2023-03-03T01:56:52;1.60;;;1.50;;
4409;SDS011;2218;51.408;7.208;2023-03-03T01:59:26;1.60;;;1.50;;
4409;SDS011;2218;51.408;7.208;2023-03-03T02:01:59;1.50;;;1.40;;
4409;SDS011;2218;51.408;7.208;2023-03-03T02:04:26;1.50;;;1.40;;
4409;SDS011;2218;51.408;7.208;2023-03-03T02:06:55;1.63;;;1.53;;
4409;SDS011;2218;51.408;7.208;2023-03-03T02:09:31;1.67;;;1.57;;
4409;SDS011;2218;51.408;7.208;2023-03-03T02:12:07;1.50;;;1.40;;
4409;SDS011;2218;51.408;7.208;2023-03-03T02:14:42;1.53;;;1.43;;
4409;SDS011;2218;51.408;7.208;2023-03-03T02:17:10;1.77;;;1.67;;
4409;SDS011;2218;51.408;7.208;2023-03-03T02:19:39;1.73;;;1.63;;
4409;SDS011;2218;51.408;7.208;2023-03-03T02:22:19;1.63;;;1.53;;
4409;SDS011;2218;51.408;7.208;2023-03-03T02:24:56;1.60;;;1.50;;
4409;SDS011;2218;51.408;7.208;2023-03-03T02:27:29;1.90;;;1.80;;
4409;SDS011;2218;51.408;7.208;2023-03-03T02:30:06;1.93;;;1.73;;
4409;SDS011;2218;51.408;7.208;2023-03-03T02:32:36;1.90;;;1.80;;
4409;SDS011;2218;51.408;7.208;2023-03-03T02:35:19;1.90;;;1.80;;
4409;SDS011;2218;51.408;7.208;2023-03-03T02:37:59;1.67;;;1.57;;
4409;SDS011;2218;51.408;7.208;2023-03-03T02:40:44;1.60;;;1.50;;
4409;SDS011;2218;51.408;7.208;2023-03-03T02:43:28;1.93;;;1.83;;
4409;SDS011;2218;51.408;7.208;2023-03-03T02:46:04;1.80;;;1.70;;
4409;SDS011;2218;51.408;7.208;2023-03-03T02:48:32;1.73;;;1.63;;
4409;SDS011;2218;51.408;7.208;2023-03-03T02:50:59;2.03;;;1.93;;
4409;SDS011;2218;51.408;7.208;2023-03-03T02:53:26;1.70;;;1.60;;
4409;SDS011;2218;51.408;7.208;2023-03-03T02:55:53;1.83;;;1.73;;
4409;SDS011;2218;51.408;7.208;2023-03-03T02:58:20;1.50;;;1.40;;
4409;SDS011;2218;51.408;7.208;2023-03-03T03:00:48;1.83;;;1.73;;
4409;SDS011;2218;51.408;7.208;2023-03-03T03:03:18;2.10;;;2.00;;
4409;SDS011;2218;51.408;7.208;2023-03-03T03:05:46;1.80;;;1.70;;
4409;SDS011;2218;51.408;7.208;2023-03-03T03:08:13;1.60;;;1.50;;
4409;SDS011;2218;51.408;7.208;2023-03-03T03:10:40;1.57;;;1.47;;
4409;SDS011;2218;51.408;7.208;2023-03-03T03:13:07;1.73;;;1.63;;
4409;SDS011;2218;51.408;7.208;2023-03-03T03:15:34;1.53;;;1.43;;
4409;SDS011;2218;51.408;7.208;2023-03-03T03:18:03;1.97;;;1.87;;
4409;SDS011;2218;51.408;7.208;2023-03-03T03:20:34;1.57;;;1.47;;
4409;SDS011;2218;51.408;7.208;2023-03-03T03:23:04;1.77;;;1.67;;
4409;SDS011;2218;51.408;7.208;2023-03-03T03:25:32;1.90;;;1.80;;
4409;SDS011;2218;51.408;7.208;2023-03-03T03:28:00;1.40;;;1.30;;
4409;SDS011;2218;51.408;7.208;2023-03-03T03:30:27;1.50;;;1.40;;
4409;SDS011;2218;51.408;7.208;2023-03-03T03:32:55;1.60;;;1.50;;
4409;SDS011;2218;51.408;7.208;2023-03-03T03:35:23;1.80;;;1.70;;
4409;SDS011;2218;51.408;7.208;2023-03-03T03:37:50;1.53;;;1.43;;
4409;SDS011;2218;51.408;7.208;2023-03-03T03:40:18;1.70;;;1.60;;
4409;SDS011;2218;51.408;7.208;2023-03-03T03:42:44;1.50;;;1.40;;
4409;SDS011;2218;51.408;7.208;2023-03-03T03:45:12;2.10;;;2.00;;
4409;SDS011;2218;51.408;7.208;2023-03-03T03:47:42;1.70;;;1.60;;
4409;SDS011;2218;51.408;7.208;2023-03-03T03:50:10;1.77;;;1.67;;
4409;SDS011;2218;51.408;7.208;2023-03-03T03:52:41;1.50;;;1.40;;
4409;SDS011;2218;51.408;7.208;2023-03-03T03:55:09;2.10;;;1.90;;
4409;SDS011;2218;51.408;7.208;2023-03-03T03:57:38;2.10;;;2.00;;
4409;SDS011;2218;51.408;7.208;2023-03-03T04:00:06;2.27;;;2.07;;
4409;SDS011;2218;51.408;7.208;2023-03-03T04:02:47;2.00;;;1.80;;
4409;SDS011;2218;51.408;7.208;2023-03-03T04:05:16;1.73;;;1.63;;
4409;SDS011;2218;51.408;7.208;2023-03-03T04:07:45;2.07;;;1.97;;
4409;SDS011;2218;51.408;7.208;2023-03-03T04:10:12;1.83;;;1.73;;
4409;SDS011;2218;51.408;7.208;2023-03-03T04:12:39;2.03;;;1.93;;
4409;SDS011;2218;51.408;7.208;2023-03-03T04:15:11;2.20;;;2.10;;
4409;SDS011;2218;51.408;7.208;2023-03-03T04:17:41;1.70;;;1.60;;
4409;SDS011;2218;51.408;7.208;2023-03-03T04:20:09;2.00;;;1.90;;
4409;SDS011;2218;51.408;7.208;2023-03-03T04:22:41;2.03;;;1.93;;
4409;SDS011;2218;51.408;7.208;2023-03-03T04:25:09;2.13;;;2.00;;
4409;SDS011;2218;51.408;7.208;2023-03-03T04:27:41;2.17;;;2.07;;
4409;SDS011;2218;51.408;7.208;2023-03-03T04:30:11;2.10;;;2.00;;
4409;SDS011;2218;51.408;7.208;2023-03-03T04:32:43;2.33;;;2.13;;
4409;SDS011;2218;51.408;7.208;2023-03-03T04:35:11;2.50;;;2.30;;
4409;SDS011;2218;51.408;7.208;2023-03-03T04:37:41;2.20;;;2.10;;
4409;SDS011;2218;51.408;7.208;2023-03-03T04:40:11;2.63;;;2.43;;
4409;SDS011;2218;51.408;7.208;2023-03-03T04:42:40;2.77;;;2.57;;
4409;SDS011;2218;51.408;7.208;2023-03-03T04:45:09;2.40;;;2.30;;
4409;SDS011;2218;51.408;7.208;2023-03-03T04:47:37;2.80;;;2.60;;
4409;SDS011;2218;51.408;7.208;2023-03-03T04:50:04;2.67;;;2.47;;
4409;SDS011;2218;51.408;7.208;2023-03-03T04:52:33;2.43;;;2.33;;
4409;SDS011;2218;51.408;7.208;2023-03-03T04:55:01;2.37;;;2.27;;
4409;SDS011;2218;51.408;7.208;2023-03-03T04:57:31;2.30;;;2.20;;
4409;SDS011;2218;51.408;7.208;2023-03-03T04:59:58;2.60;;;2.50;;
4409;SDS011;2218;51.408;7.208;2023-03-03T05:02:25;2.47;;;2.37;;
4409;SDS011;2218;51.408;7.208;2023-03-03T05:04:52;2.40;;;2.30;;
4409;SDS011;2218;51.408;7.208;2023-03-03T05:07:19;2.50;;;2.40;;
4409;SDS011;2218;51.408;7.208;2023-03-03T05:09:46;2.80;;;2.60;;
4409;SDS011;2218;51.408;7.208;2023-03-03T05:12:13;2.93;;;2.70;;
4409;SDS011;2218;51.408;7.208;2023-03-03T05:14:41;3.10;;;2.90;;
4409;SDS011;2218;51.408;7.208;2023-03-03T05:17:08;3.80;;;2.93;;
4409;SDS011;2218;51.408;7.208;2023-03-03T05:19:35;3.00;;;2.80;;
4409;SDS011;2218;51.408;7.208;2023-03-03T05:22:02;2.80;;;2.60;;
4409;SDS011;2218;51.408;7.208;2023-03-03T05:24:28;3.03;;;2.83;;
4409;SDS011;2218;51.408;7.208;2023-03-03T05:26:55;3.20;;;3.00;;
4409;SDS011;2218;51.408;7.208;2023-03-03T05:29:22;3.20;;;3.00;;
4409;SDS011;2218;51.408;7.208;2023-03-03T05:31:51;3.23;;;2.97;;
4409;SDS011;2218;51.408;7.208;2023-03-03T05:34:18;2.93;;;2.73;;
4409;SDS011;2218;51.408;7.208;2023-03-03T05:36:45;2.93;;;2.73;;
4409;SDS011;2218;51.408;7.208;2023-03-03T05:39:12;3.40;;;3.20;;
4409;SDS011;2218;51.408;7.208;2023-03-03T05:41:39;3.07;;;2.87;;
4409;SDS011;2218;51.408;7.208;2023-03-03T05:44:06;3.20;;;2.97;;
4409;SDS011;2218;51.408;7.208;2023-03-03T05:46:33;3.33;;;3.10;;
4409;SDS011;2218;51.408;7.208;2023-03-03T05:49:01;3.50;;;3.30;;
4409;SDS011;2218;51.408;7.208;2023-03-03T05:51:28;3.07;;;2.80;;
4409;SDS011;2218;51.408;7.208;2023-03-03T05:53:55;3.23;;;3.03;;
4409;SDS011;2218;51.408;7.208;2023-03-03T05:56:22;3.50;;;3.20;;
4409;SDS011;2218;51.408;7.208;2023-03-03T05:58:49;2.90;;;2.70;;
4409;SDS011;2218;51.408;7.208;2023-03-03T06:01:16;3.33;;;3.03;;
4409;SDS011;2218;51.408;7.208;2023-03-03T06:03:43;3.20;;;3.00;;
4409;SDS011;2218;51.408;7.208;2023-03-03T06:06:11;3.00;;;2.80;;
4409;SDS011;2218;51.408;7.208;2023-03-03T06:08:40;2.97;;;2.77;;
4409;SDS011;2218;51.408;7.208;2023-03-03T06:11:07;3.37;;;3.10;;
4409;SDS011;2218;51.408;7.208;2023-03-03T06:13:34;2.97;;;2.77;;
4409;SDS011;2218;51.408;7.208;2023-03-03T06:16:01;3.10;;;2.90;;
4409;SDS011;2218;51.408;7.208;2023-03-03T06:18:29;3.50;;;3.20;;
4409;SDS011;2218;51.408;7.208;2023-03-03T06:20:56;2.93;;;2.73;;
4409;SDS011;2218;51.408;7.208;2023-03-03T06:23:24;3.43;;;3.13;;
4409;SDS011;2218;51.408;7.208;2023-03-03T06:25:51;2.70;;;2.50;;
4409;SDS011;2218;51.408;7.208;2023-03-03T06:28:18;3.03;;;2.73;;
4409;SDS011;2218;51.408;7.208;2023-03-03T06:30:45;2.80;;;2.60;;
4409;SDS011;2218;51.408;7.208;2023-03-03T06:33:12;3.13;;;2.87;;
4409;SDS011;2218;51.408;7.208;2023-03-03T06:35:38;2.93;;;2.73;;
4409;SDS011;2218;51.408;7.208;2023-03-03T06:38:05;2.90;;;2.70;;
4409;SDS011;2218;51.408;7.208;2023-03-03T06:40:33;3.10;;;2.73;;
4409;SDS011;2218;51.408;7.208;2023-03-03T06:43:00;3.07;;;2.87;;
4409;SDS011;2218;51.408;7.208;2023-03-03T06:45:28;3.30;;;3.00;;
4409;SDS011;2218;51.408;7.208;2023-03-03T06:47:55;3.20;;;3.00;;
4409;SDS011;2218;51.408;7.208;2023-03-03T06:50:22;2.97;;;2.73;;
4409;SDS011;2218;51.408;7.208;2023-03-03T06:52:49;2.57;;;2.47;;
4409;SDS011;2218;51.408;7.208;2023-03-03T06:55:27;3.17;;;2.93;;
4409;SDS011;2218;51.408;7.208;2023-03-03T06:57:56;3.07;;;2.83;;
4409;SDS011;2218;51.408;7.208;2023-03-03T07:00:25;2.80;;;2.60;;
4409;SDS011;2218;51.408;7.208;2023-03-03T07:02:56;2.93;;;2.73;;
4409;SDS011;2218;51.408;7.208;2023-03-03T07:05:27;2.30;;;2.20;;
4409;SDS011;2218;51.408;7.208;2023-03-03T07:07:54;2.70;;;2.50;;
4409;SDS011;2218;51.408;7.208;2023-03-03T07:10:23;2.17;;;2.07;;
4409;SDS011;2218;51.408;7.208;2023-03-03T07:12:52;2.60;;;2.50;;
4409;SDS011;2218;51.408;7.208;2023-03-03T07:15:24;2.63;;;2.53;;
4409;SDS011;2218;51.408;7.208;2023-03-03T07:17:59;2.80;;;2.60;;
4409;SDS011;2218;51.408;7.208;2023-03-03T07:20:27;2.60;;;2.40;;
4409;SDS011;2218;51.408;7.208;2023-03-03T07:23:00;2.50;;;2.30;;
4409;SDS011;2218;51.408;7.208;2023-03-03T07:25:41;2.70;;;2.50;;
4409;SDS011;2218;51.408;7.208;2023-03-03T07:28:12;2.30;;;2.20;;
4409;SDS011;2218;51.408;7.208;2023-03-03T07:30:49;2.70;;;2.50;;
4409;SDS011;2218;51.408;7.208;2023-03-03T07:33:18;2.43;;;2.33;;
4409;SDS011;2218;51.408;7.208;2023-03-03T07:35:50;2.60;;;2.37;;
4409;SDS011;2218;51.408;7.208;2023-03-03T07:38:22;2.67;;;2.50;;
4409;SDS011;2218;51.408;7.208;2023-03-03T07:40:57;2.33;;;2.13;;
4409;SDS011;2218;51.408;7.208;2023-03-03T07:43:33;2.10;;;2.00;;
4409;SDS011;2218;51.408;7.208;2023-03-03T07:46:14;2.67;;;2.50;;
4409;SDS011;2218;51.408;7.208;2023-03-03T07:48:51;2.20;;;2.10;;
4409;SDS011;2218;51.408;7.208;2023-03-03T07:51:21;2.77;;;2.57;;
4409;SDS011;2218;51.408;7.208;2023-03-03T07:53:52;2.33;;;2.13;;
4409;SDS011;2218;51.408;7.208;2023-03-03T07:56:27;2.60;;;2.40;;
4409;SDS011;2218;51.408;7.208;2023-03-03T07:58:59;2.20;;;2.10;;
4409;SDS011;2218;51.408;7.208;2023-03-03T08:01:42;2.40;;;2.20;;
4409;SDS011;2218;51.408;7.208;2023-03-03T08:04:18;2.40;;;2.20;;
4409;SDS011;2218;51.408;7.208;2023-03-03T08:06:50;2.00;;;1.90;;
4409;SDS011;2218;51.408;7.208;2023-03-03T08:12:26;2.60;;;2.40;;
4409;SDS011;2218;51.408;7.208;2023-03-03T08:15:20;2.73;;;2.53;;
4409;SDS011;2218;51.408;7.208;2023-03-03T08:17:51;2.90;;;2.70;;
4409;SDS011;2218;51.408;7.208;2023-03-03T08:20:30;3.33;;;3.03;;
4409;SDS011;2218;51.408;7.208;2023-03-03T08:23:14;3.87;;;3.57;;
4409;SDS011;2218;51.408;7.208;2023-03-03T08:25:43;6.13;;;3.37;;
4409;SDS011;2218;51.408;7.208;2023-03-03T08:28:11;3.13;;;2.93;;
4409;SDS011;2218;51.408;7.208;2023-03-03T08:30:39;4.20;;;3.73;;
4409;SDS011;2218;51.408;7.208;2023-03-03T08:33:08;3.80;;;3.40;;
4409;SDS011;2218;51.408;7.208;2023-03-03T08:35:36;4.70;;;4.13;;
4409;SDS011;2218;51.408;7.208;2023-03-03T08:38:03;4.10;;;3.60;;
4409;SDS011;2218;51.408;7.208;2023-03-03T08:40:31;4.20;;;3.90;;
4409;SDS011;2218;51.408;7.208;2023-03-03T08:42:59;3.53;;;3.33;;
4409;SDS011;2218;51.408;7.208;2023-03-03T08:45:26;4.13;;;3.80;;
4409;SDS011;2218;51.408;7.208;2023-03-03T08:47:53;3.90;;;3.60;;
4409;SDS011;2218;51.408;7.208;2023-03-03T08:50:22;4.50;;;4.10;;
4409;SDS011;2218;51.408;7.208;2023-03-03T08:52:49;4.27;;;3.87;;
4409;SDS011;2218;51.408;7.208;2023-03-03T08:55:16;4.70;;;4.30;;
4409;SDS011;2218;51.408;7.208;2023-03-03T08:57:43;4.47;;;4.07;;
4409;SDS011;2218;51.408;7.208;2023-03-03T09:00:11;5.13;;;4.63;;
4409;SDS011;2218;51.408;7.208;2023-03-03T09:02:42;4.77;;;4.37;;
4409;SDS011;2218;51.408;7.208;2023-03-03T09:05:09;4.60;;;4.20;;
4409;SDS011;2218;51.408;7.208;2023-03-03T09:07:39;4.23;;;3.93;;
4409;SDS011;2218;51.408;7.208;2023-03-03T09:10:07;4.13;;;3.83;;
4409;SDS011;2218;51.408;7.208;2023-03-03T09:12:37;4.50;;;4.10;;
4409;SDS011;2218;51.408;7.208;2023-03-03T09:15:12;5.00;;;4.50;;
4409;SDS011;2218;51.408;7.208;2023-03-03T09:17:46;3.93;;;3.63;;
4409;SDS011;2218;51.408;7.208;2023-03-03T09:20:20;5.07;;;4.57;;
4409;SDS011;2218;51.408;7.208;2023-03-03T09:22:58;5.20;;;4.70;;
4409;SDS011;2218;51.408;7.208;2023-03-03T09:25:46;5.40;;;4.90;;
4409;SDS011;2218;51.408;7.208;2023-03-03T09:28:18;4.40;;;4.03;;
4409;SDS011;2218;51.408;7.208;2023-03-03T09:30:51;4.60;;;4.20;;
4409;SDS011;2218;51.408;7.208;2023-03-03T09:33:24;4.93;;;4.50;;
4409;SDS011;2218;51.408;7.208;2023-03-03T09:36:00;4.10;;;3.80;;
4409;SDS011;2218;51.408;7.208;2023-03-03T09:38:45;5.03;;;4.63;;
4409;SDS011;2218;51.408;7.208;2023-03-03T09:41:27;4.77;;;4.37;;
4409;SDS011;2218;51.408;7.208;2023-03-03T09:44:27;5.03;;;4.33;;
4409;SDS011;2218;51.408;7.208;2023-03-03T09:47:25;4.70;;;4.30;;
4409;SDS011;2218;51.408;7.208;2023-03-03T09:50:10;5.20;;;4.70;;
4409;SDS011;2218;51.408;7.208;2023-03-03T09:52:55;4.70;;;4.30;;
4409;SDS011;2218;51.408;7.208;2023-03-03T09:55:42;10.53;;;4.97;;
4409;SDS011;2218;51.408;7.208;2023-03-03T09:58:28;4.87;;;4.40;;
4409;SDS011;2218;51.408;7.208;2023-03-03T10:04:21;4.90;;;4.40;;
4409;SDS011;2218;51.408;7.208;2023-03-03T10:07:18;5.20;;;4.70;;
4409;SDS011;2218;51.408;7.208;2023-03-03T10:10:02;4.40;;;4.00;;
4409;SDS011;2218;51.408;7.208;2023-03-03T10:12:54;4.20;;;3.80;;
4409;SDS011;2218;51.408;7.208;2023-03-03T10:15:42;5.57;;;4.50;;
4409;SDS011;2218;51.408;7.208;2023-03-03T10:18:36;4.47;;;3.33;;
4409;SDS011;2218;51.408;7.208;2023-03-03T10:21:14;4.30;;;3.90;;
4409;SDS011;2218;51.408;7.208;2023-03-03T10:23:53;9.07;;;4.50;;
4409;SDS011;2218;51.408;7.208;2023-03-03T10:26:38;6.40;;;4.23;;
4409;SDS011;2218;51.408;7.208;2023-03-03T10:29:24;4.73;;;4.30;;
4409;SDS011;2218;51.408;7.208;2023-03-03T10:32:08;4.40;;;4.00;;
4409;SDS011;2218;51.408;7.208;2023-03-03T10:35:07;5.60;;;4.00;;
4409;SDS011;2218;51.408;7.208;2023-03-03T10:38:16;4.57;;;4.17;;
4409;SDS011;2218;51.408;7.208;2023-03-03T10:40:58;4.10;;;3.80;;
4409;SDS011;2218;51.408;7.208;2023-03-03T10:43:47;6.40;;;4.60;;
4409;SDS011;2218;51.408;7.208;2023-03-03T10:46:41;5.33;;;4.90;;
4409;SDS011;2218;51.408;7.208;2023-03-03T10:49:26;4.13;;;3.80;;
4409;SDS011;2218;51.408;7.208;2023-03-03T10:52:17;8.10;;;4.30;;
4409;SDS011;2218;51.408;7.208;2023-03-03T10:58:15;4.23;;;3.83;;
4409;SDS011;2218;51.408;7.208;2023-03-03T11:01:07;4.30;;;3.93;;
4409;SDS011;2218;51.408;7.208;2023-03-03T11:06:56;5.03;;;4.60;;
4409;SDS011;2218;51.408;7.208;2023-03-03T11:12:37;4.23;;;3.83;;
4409;SDS011;2218;51.408;7.208;2023-03-03T11:15:20;5.70;;;3.90;;
4409;SDS011;2218;51.408;7.208;2023-03-03T11:18:09;3.77;;;3.47;;
4409;SDS011;2218;51.408;7.208;2023-03-03T11:20:56;4.10;;;3.80;;
4409;SDS011;2218;51.408;7.208;2023-03-03T11:23:42;3.77;;;3.50;;
4409;SDS011;2218;51.408;7.208;2023-03-03T11:26:25;4.00;;;3.70;;
4409;SDS011;2218;51.408;7.208;2023-03-03T11:29:15;4.30;;;3.90;;
4409;SDS011;2218;51.408;7.208;2023-03-03T11:32:00;3.60;;;3.30;;
4409;SDS011;2218;51.408;7.208;2023-03-03T11:34:49;4.10;;;3.70;;
4409;SDS011;2218;51.408;7.208;2023-03-03T11:37:47;3.67;;;3.37;;
4409;SDS011;2218;51.408;7.208;2023-03-03T11:40:31;3.83;;;3.53;;
4409;SDS011;2218;51.408;7.208;2023-03-03T11:43:17;5.40;;;3.90;;
4409;SDS011;2218;51.408;7.208;2023-03-03T11:45:54;3.80;;;3.50;;
4409;SDS011;2218;51.408;7.208;2023-03-03T11:48:30;3.53;;;3.23;;
4409;SDS011;2218;51.408;7.208;2023-03-03T11:51:05;3.53;;;3.30;;
4409;SDS011;2218;51.408;7.208;2023-03-03T11:53:42;3.10;;;2.87;;
4409;SDS011;2218;51.408;7.208;2023-03-03T11:56:23;3.10;;;2.90;;
4409;SDS011;2218;51.408;7.208;2023-03-03T11:59:08;2.60;;;2.50;;
4409;SDS011;2218;51.408;7.208;2023-03-03T12:02:14;3.00;;;2.77;;
4409;SDS011;2218;51.408;7.208;2023-03-03T12:05:09;3.30;;;3.00;;
4409;SDS011;2218;51.408;7.208;2023-03-03T12:07:52;3.07;;;2.87;;
4409;SDS011;2218;51.408;7.208;2023-03-03T12:10:30;2.60;;;2.40;;
4409;SDS011;2218;51.408;7.208;2023-03-03T12:13:09;2.70;;;2.50;;
4409;SDS011;2218;51.408;7.208;2023-03-03T12:15:48;2.80;;;2.50;;
4409;SDS011;2218;51.408;7.208;2023-03-03T12:18:34;2.90;;;2.70;;
4409;SDS011;2218;51.408;7.208;2023-03-03T12:21:22;2.77;;;2.57;;
4409;SDS011;2218;51.408;7.208;2023-03-03T12:24:17;2.83;;;2.60;;
4409;SDS011;2218;51.408;7.208;2023-03-03T12:27:04;3.73;;;2.97;;
4409;SDS011;2218;51.408;7.208;2023-03-03T12:29:46;3.00;;;2.80;;
4409;SDS011;2218;51.408;7.208;2023-03-03T12:32:32;3.33;;;2.10;;
4409;SDS011;2218;51.408;7.208;2023-03-03T12:35:24;2.50;;;2.30;;
4409;SDS011;2218;51.408;7.208;2023-03-03T12:38:00;3.20;;;3.00;;
4409;SDS011;2218;51.408;7.208;2023-03-03T12:40:43;2.90;;;2.70;;
4409;SDS011;2218;51.408;7.208;2023-03-03T12:43:25;3.07;;;2.77;;
4409;SDS011;2218;51.408;7.208;2023-03-03T12:46:10;2.60;;;2.40;;
4409;SDS011;2218;51.408;7.208;2023-03-03T12:48:46;3.33;;;3.03;;
4409;SDS011;2218;51.408;7.208;2023-03-03T12:51:19;7.93;;;2.97;;
4409;SDS011;2218;51.408;7.208;2023-03-03T12:57:09;3.07;;;2.87;;
4409;SDS011;2218;51.408;7.208;2023-03-03T12:59:52;2.40;;;2.30;;
4409;SDS011;2218;51.408;7.208;2023-03-03T13:02:44;3.00;;;2.80;;
4409;SDS011;2218;51.408;7.208;2023-03-03T13:05:26;2.30;;;2.20;;
4409;SDS011;2218;51.408;7.208;2023-03-03T13:08:10;2.73;;;2.43;;
4409;SDS011;2218;51.408;7.208;2023-03-03T13:11:00;2.50;;;2.40;;
4409;SDS011;2218;51.408;7.208;2023-03-03T13:13:48;3.23;;;3.03;;
4409;SDS011;2218;51.408;7.208;2023-03-03T13:16:24;3.00;;;2.80;;
4409;SDS011;2218;51.408;7.208;2023-03-03T13:18:59;2.50;;;2.40;;
4409;SDS011;2218;51.408;7.208;2023-03-03T13:21:34;2.70;;;2.50;;
4409;SDS011;2218;51.408;7.208;2023-03-03T13:24:16;3.53;;;2.50;;
4409;SDS011;2218;51.408;7.208;2023-03-03T13:26:53;2.67;;;2.47;;
4409;SDS011;2218;51.408;7.208;2023-03-03T13:29:27;2.70;;;2.50;;
4409;SDS011;2218;51.408;7.208;2023-03-03T13:32:03;2.57;;;2.40;;
4409;SDS011;2218;51.408;7.208;2023-03-03T13:34:42;3.20;;;3.00;;
4409;SDS011;2218;51.408;7.208;2023-03-03T13:37:18;2.90;;;2.70;;
4409;SDS011;2218;51.408;7.208;2023-03-03T13:39:52;2.60;;;2.40;;
4409;SDS011;2218;51.408;7.208;2023-03-03T13:42:26;3.10;;;2.90;;
4409;SDS011;2218;51.408;7.208;2023-03-03T13:45:06;2.90;;;2.70;;
4409;SDS011;2218;51.408;7.208;2023-03-03T13:47:49;2.73;;;2.53;;
4409;SDS011;2218;51.408;7.208;2023-03-03T13:50:29;3.10;;;2.10;;
4409;SDS011;2218;51.408;7.208;2023-03-03T13:53:11;2.97;;;2.77;;
4409;SDS011;2218;51.408;7.208;2023-03-03T13:56:04;3.00;;;2.80;;
4409;SDS011;2218;51.408;7.208;2023-03-03T13:58:45;2.87;;;2.67;;
4409;SDS011;2218;51.408;7.208;2023-03-03T14:01:27;3.83;;;3.43;;
4409;SDS011;2218;51.408;7.208;2023-03-03T14:04:13;3.47;;;3.17;;
4409;SDS011;2218;51.408;7.208;2023-03-03T14:06:58;4.10;;;3.80;;
4409;SDS011;2218;51.408;7.208;2023-03-03T14:09:50;3.90;;;3.60;;
4409;SDS011;2218;51.408;7.208;2023-03-03T14:12:33;3.90;;;3.60;;
4409;SDS011;2218;51.408;7.208;2023-03-03T14:15:13;4.00;;;3.70;;
4409;SDS011;2218;51.408;7.208;2023-03-03T14:17:56;4.40;;;4.10;;
4409;SDS011;2218;51.408;7.208;2023-03-03T14:20:43;3.90;;;3.60;;
4409;SDS011;2218;51.408;7.208;2023-03-03T14:23:15;3.87;;;3.57;;
4409;SDS011;2218;51.408;7.208;2023-03-03T14:25:50;3.73;;;3.50;;
4409;SDS011;2218;51.408;7.208;2023-03-03T14:28:24;4.87;;;4.47;;
4409;SDS011;2218;51.408;7.208;2023-03-03T14:30:54;4.50;;;4.20;;
4409;SDS011;2218;51.408;7.208;2023-03-03T14:33:27;4.23;;;3.93;;
4409;SDS011;2218;51.408;7.208;2023-03-03T14:36:02;4.80;;;4.40;;
4409;SDS011;2218;51.408;7.208;2023-03-03T14:38:36;4.20;;;3.90;;
4409;SDS011;2218;51.408;7.208;2023-03-03T14:41:15;5.07;;;4.67;;
4409;SDS011;2218;51.408;7.208;2023-03-03T14:44:01;4.83;;;3.90;;
4409;SDS011;2218;51.408;7.208;2023-03-03T14:46:59;5.27;;;4.80;;
4409;SDS011;2218;51.408;7.208;2023-03-03T14:49:47;4.87;;;4.53;;
4409;SDS011;2218;51.408;7.208;2023-03-03T14:52:21;4.60;;;4.30;;
4409;SDS011;2218;51.408;7.208;2023-03-03T14:54:51;5.03;;;4.63;;
4409;SDS011;2218;51.408;7.208;2023-03-03T14:57:20;4.10;;;3.80;;
4409;SDS011;2218;51.408;7.208;2023-03-03T15:00:26;4.77;;;4.37;;
4409;SDS011;2218;51.408;7.208;2023-03-03T15:03:00;4.93;;;4.53;;
4409;SDS011;2218;51.408;7.208;2023-03-03T15:05:49;4.30;;;4.00;;
4409;SDS011;2218;51.408;7.208;2023-03-03T15:08:23;4.77;;;4.40;;
4409;SDS011;2218;51.408;7.208;2023-03-03T15:11:11;4.20;;;3.80;;
4409;SDS011;2218;51.408;7.208;2023-03-03T15:13:45;5.70;;;5.13;;
4409;SDS011;2218;51.408;7.208;2023-03-03T15:16:15;4.57;;;4.17;;
4409;SDS011;2218;51.408;7.208;2023-03-03T15:21:57;5.60;;;4.63;;
4409;SDS011;2218;51.408;7.208;2023-03-03T15:24:37;4.90;;;4.50;;
4409;SDS011;2218;51.408;7.208;2023-03-03T15:27:11;4.70;;;4.30;;
4409;SDS011;2218;51.408;7.208;2023-03-03T15:29:54;5.17;;;4.70;;
4409;SDS011;2218;51.408;7.208;2023-03-03T15:32:35;3.83;;;3.60;;
4409;SDS011;2218;51.408;7.208;2023-03-03T15:35:13;4.27;;;3.97;;
4409;SDS011;2218;51.408;7.208;2023-03-03T15:37:58;4.10;;;3.80;;
4409;SDS011;2218;51.408;7.208;2023-03-03T15:40:38;4.20;;;3.90;;
4409;SDS011;2218;51.408;7.208;2023-03-03T15:43:18;4.80;;;4.40;;
4409;SDS011;2218;51.408;7.208;2023-03-03T15:45:53;4.40;;;4.10;;
4409;SDS011;2218;51.408;7.208;2023-03-03T15:48:42;4.90;;;4.20;;
4409;SDS011;2218;51.408;7.208;2023-03-03T15:54:33;5.83;;;4.20;;
4409;SDS011;2218;51.408;7.208;2023-03-03T15:57:12;3.57;;;3.37;;
4409;SDS011;2218;51.408;7.208;2023-03-03T15:59:56;3.90;;;3.60;;
4409;SDS011;2218;51.408;7.208;2023-03-03T16:02:51;3.57;;;3.37;;
4409;SDS011;2218;51.408;7.208;2023-03-03T16:05:24;4.53;;;4.23;;
4409;SDS011;2218;51.408;7.208;2023-03-03T16:07:58;4.27;;;3.97;;
4409;SDS011;2218;51.408;7.208;2023-03-03T16:10:37;3.80;;;3.50;;
4409;SDS011;2218;51.408;7.208;2023-03-03T16:13:22;3.63;;;3.33;;
4409;SDS011;2218;51.408;7.208;2023-03-03T16:16:19;3.50;;;3.20;;
4409;SDS011;2218;51.408;7.208;2023-03-03T16:19:02;3.50;;;3.30;;
4409;SDS011;2218;51.408;7.208;2023-03-03T16:21:53;3.70;;;3.40;;
4409;SDS011;2218;51.408;7.208;2023-03-03T16:24:53;3.63;;;3.33;;
4409;SDS011;2218;51.408;7.208;2023-03-03T16:27:33;3.60;;;3.40;;
4409;SDS011;2218;51.408;7.208;2023-03-03T16:30:13;3.73;;;3.43;;
4409;SDS011;2218;51.408;7.208;2023-03-03T16:32:55;3.87;;;3.57;;
4409;SDS011;2218;51.408;7.208;2023-03-03T16:35:37;3.70;;;3.40;;